Time;durP1;ratioP1;P1;durP2;ratioP2;P2;SDS_P1;SDS_P2;PMS_P1;PMS_P2;Temp;Humidity;BMP_temperature;BMP_pressure;BME280_temperature;BME280_humidity;BME280_pressure;Samples;Min_cycle;Max_cycle;Signal;HPM_P1;HPM_P2
2021/05/21 00:00:29;;;;;;;2.87;1.20;;;18.80;90.60;;;18.79;45.97;100572.44;4958203;28;98413;-47
2021/05/21 00:02:57;;;;;;;3.33;1.67;;;18.70;91.30;;;18.72;45.15;100567.56;4926972;28;97914;-47
2021/05/21 00:05:24;;;;;;;2.67;1.37;;;18.60;90.70;;;18.67;44.79;100567.03;4926441;28;97546;-53
2021/05/21 00:07:50;;;;;;;1.43;1.00;;;18.50;91.30;;;18.64;47.40;100558.34;4938661;28;98682;-49
2021/05/21 00:10:16;;;;;;;2.67;1.17;;;18.50;93.10;;;18.55;45.65;100549.16;4925951;28;98607;-50
2021/05/21 00:12:41;;;;;;;2.47;1.50;;;18.40;91.30;;;18.60;46.52;100541.66;4926729;28;99739;-48
2021/05/21 00:15:09;;;;;;;3.30;1.50;;;18.50;92.40;;;18.61;46.81;100538.03;4924638;28;98631;-48
2021/05/21 00:17:35;;;;;;;6.80;2.20;;;18.50;91.90;;;18.55;43.94;100535.81;4926749;28;98965;-49
2021/05/21 00:20:01;;;;;;;3.17;1.37;;;18.50;90.70;;;18.56;45.52;100532.19;4925665;28;102012;-48
2021/05/21 00:22:27;;;;;;;1.17;1.07;;;18.50;91.30;;;18.56;45.32;100523.31;4924468;28;99460;-46
2021/05/21 00:24:53;;;;;;;1.70;1.47;;;18.50;91.90;;;18.48;42.94;100531.00;4928152;28;98524;-56
2021/05/21 00:27:18;;;;;;;3.60;1.73;;;18.40;90.20;;;18.41;43.67;100519.91;4919768;28;97179;-48
2021/05/21 00:29:44;;;;;;;1.10;0.90;;;18.30;90.30;;;18.45;45.36;100521.38;4929211;28;116765;-51
2021/05/21 00:32:10;;;;;;;3.57;1.57;;;18.30;92.00;;;18.40;45.20;100507.50;4923123;28;97700;-49
2021/05/21 00:34:36;;;;;;;1.03;0.97;;;18.30;91.10;;;18.45;47.36;100494.69;4929984;28;97186;-49
2021/05/21 00:37:02;;;;;;;2.27;1.20;;;18.30;92.80;;;18.45;47.01;100497.34;4925356;28;98607;-46
2021/05/21 00:39:28;;;;;;;1.40;1.03;;;18.40;92.30;;;18.44;45.46;100509.84;4927994;28;98077;-51
2021/05/21 00:41:54;;;;;;;1.80;1.33;;;18.30;91.60;;;18.37;46.64;100507.72;4920943;28;98784;-55
2021/05/21 00:44:20;;;;;;;1.43;1.17;;;18.20;91.30;;;18.30;46.52;100501.09;4934048;28;97542;-49
2021/05/21 00:46:45;;;;;;;1.37;0.97;;;18.10;92.20;;;18.28;45.47;100492.34;4924616;28;97899;-47
2021/05/21 00:49:17;;;;;;;3.57;2.10;;;18.10;92.20;;;18.28;43.86;100492.34;4922921;28;99447;-47
2021/05/21 00:51:47;;;;;;;4.67;2.13;;;18.20;90.70;;;18.33;44.86;100487.53;4906994;28;98653;-47
2021/05/21 00:54:19;;;;;;;1.17;1.07;;;18.30;91.90;;;18.34;47.77;100475.88;4929018;28;100290;-49
2021/05/21 00:56:47;;;;;;;2.70;1.13;;;18.30;93.20;;;18.35;44.08;100472.25;4959197;28;98538;-51
2021/05/21 00:59:13;;;;;;;1.67;1.17;;;18.30;91.10;;;18.31;44.84;100468.09;4927722;28;99594;-46
2021/05/21 01:01:39;;;;;;;2.63;1.70;;;18.20;91.50;;;18.35;45.69;100462.44;4942055;28;99672;-47
2021/05/21 01:04:06;;;;;;;2.63;1.23;;;18.30;91.50;;;18.40;45.31;100443.44;4939847;28;97519;-51
2021/05/21 01:06:32;;;;;;;1.17;1.07;;;18.30;92.10;;;18.40;47.07;100448.78;4958305;28;99144;-49
2021/05/21 01:08:59;;;;;;;2.90;1.33;;;18.30;92.70;;;18.37;47.38;100459.66;4943921;28;101843;-49
2021/05/21 01:11:26;;;;;;;2.77;1.60;;;18.30;92.70;;;18.36;43.66;100450.78;4930039;28;98679;-48
2021/05/21 01:13:52;;;;;;;2.40;1.50;;;18.30;90.40;;;18.31;44.12;100439.59;4928208;28;98921;-52
2021/05/21 01:16:18;;;;;;;1.70;1.30;;;18.20;91.10;;;18.39;47.58;100436.38;4940919;28;97591;-52
2021/05/21 01:18:44;;;;;;;1.83;0.90;;;18.20;92.60;;;18.43;47.62;100437.84;4926391;28;97836;-48
2021/05/21 01:21:11;;;;;;;2.00;1.33;;;18.30;93.30;;;18.44;47.59;100435.06;4925488;28;99432;-50
2021/05/21 01:23:36;;;;;;;4.87;2.30;;;18.40;92.80;;;18.40;47.16;100433.59;4926192;28;101440;-49
2021/05/21 01:26:03;;;;;;;2.90;1.53;;;18.30;92.30;;;18.47;47.55;100441.16;4925581;28;98463;-48
2021/05/21 01:28:29;;;;;;;1.73;1.03;;;18.30;92.40;;;18.48;47.50;100426.84;4956793;28;98892;-50
2021/05/21 01:30:55;;;;;;;5.20;1.63;;;18.40;93.20;;;18.50;46.69;100423.09;4927676;28;99261;-48
2021/05/21 01:33:22;;;;;;;3.13;1.57;;;18.50;91.80;;;18.50;46.73;100411.56;4922733;28;97893;-49
2021/05/21 01:35:48;;;;;;;4.37;2.00;;;18.50;92.10;;;18.48;46.86;100409.00;4960038;28;98944;-48
2021/05/21 01:38:14;;;;;;;1.23;0.83;;;18.40;92.00;;;18.56;47.49;100397.78;4926225;28;98099;-49
2021/05/21 01:40:42;;;;;;;1.57;1.33;;;18.50;93.00;;;18.54;44.85;100397.88;4923997;28;98269;-52
2021/05/21 01:43:08;;;;;;;4.07;2.03;;;18.50;91.10;;;18.48;46.20;100402.81;4940638;28;97252;-49
2021/05/21 01:45:34;;;;;;;1.80;1.10;;;18.30;90.50;;;18.44;45.97;100404.84;4925177;28;99292;-49
2021/05/21 01:48:00;;;;;;;5.33;1.60;;;18.30;91.50;;;18.41;44.36;100389.91;4924436;28;97743;-48
2021/05/21 01:50:26;;;;;;;2.90;1.70;;;18.30;91.40;;;18.33;44.38;100394.09;4905495;28;98540;-48
2021/05/21 01:52:52;;;;;;;7.30;1.93;;;18.20;91.00;;;18.32;43.73;100389.72;4926842;28;97649;-48
2021/05/21 01:55:18;;;;;;;1.97;1.23;;;18.20;90.60;;;18.34;47.52;100379.78;4921693;28;97617;-53
2021/05/21 01:57:44;;;;;;;2.87;1.80;;;18.20;92.70;;;18.32;46.34;100376.34;4958502;28;99500;-48
2021/05/21 02:00:12;;;;;;;2.00;1.47;;;18.20;91.60;;;18.37;47.01;100376.88;4918651;28;99143;-50
2021/05/21 02:02:39;;;;;;;2.73;1.50;;;18.20;91.70;;;18.35;44.72;100371.66;4926804;28;99171;-48
2021/05/21 02:05:08;;;;;;;3.57;1.33;;;18.30;91.20;;;18.32;44.75;100371.03;4924492;28;97500;-47
2021/05/21 02:07:35;;;;;;;1.17;0.97;;;18.20;90.90;;;18.32;47.47;100365.69;4930477;28;100054;-52
2021/05/21 02:10:11;;;;;;;1.53;1.07;;;18.10;92.90;;;18.35;45.63;100365.44;4905756;28;98439;-47
2021/05/21 02:12:37;;;;;;;2.57;1.10;;;18.20;91.60;;;18.33;47.68;100367.38;4927612;28;98389;-48
2021/05/21 02:15:08;;;;;;;2.77;1.37;;;18.20;92.80;;;18.32;47.09;100365.69;4919969;28;98372;-49
2021/05/21 02:17:34;;;;;;;1.90;1.10;;;18.20;92.00;;;18.36;47.76;100356.47;4927893;28;98486;-47
2021/05/21 02:20:01;;;;;;;1.53;1.27;;;18.20;93.40;;;18.33;47.39;100351.38;4923080;28;98221;-50
2021/05/21 02:22:29;;;;;;;3.93;1.13;;;18.20;92.70;;;18.34;46.66;100347.72;4943417;28;99101;-51
2021/05/21 02:24:58;;;;;;;3.60;1.17;;;18.20;92.00;;;18.38;46.58;100349.22;4922512;28;97813;-49
2021/05/21 02:27:25;;;;;;;2.10;1.10;;;18.20;92.00;;;18.38;47.40;100349.22;4924264;28;99291;-47
2021/05/21 02:29:52;;;;;;;3.87;1.10;;;18.20;92.70;;;18.37;45.79;100339.50;4929186;28;97657;-48
2021/05/21 02:32:19;;;;;;;1.27;0.87;;;18.30;91.90;;;18.33;47.81;100335.34;4935859;28;97070;-45
2021/05/21 02:34:45;;;;;;;1.43;0.70;;;18.20;93.10;;;18.30;46.99;100335.56;4928682;28;96919;-49
2021/05/21 02:37:11;;;;;;;1.60;1.07;;;18.10;92.60;;;18.34;46.89;100326.38;4922066;28;100582;-49
2021/05/21 02:39:37;;;;;;;1.00;0.90;;;18.20;91.90;;;18.36;47.73;100321.75;4929112;28;97758;-52
2021/05/21 02:42:04;;;;;;;1.33;0.90;;;18.20;93.50;;;18.42;47.72;100319.50;4923205;28;102626;-52
2021/05/21 02:44:30;;;;;;;1.50;0.70;;;18.40;93.50;;;18.39;46.63;100313.56;4928003;28;99194;-49
2021/05/21 02:46:56;;;;;;;1.97;1.10;;;18.30;91.80;;;18.39;47.35;100310.88;4919681;28;99269;-47
2021/05/21 02:49:23;;;;;;;1.77;1.03;;;18.30;92.50;;;18.40;47.45;100317.94;4930964;28;97537;-46
2021/05/21 02:51:51;;;;;;;1.17;1.00;;;18.30;93.20;;;18.43;47.12;100305.19;4925323;28;99680;-46
2021/05/21 02:54:17;;;;;;;1.40;0.93;;;18.30;92.60;;;18.44;47.56;100311.38;4926765;28;98427;-50
2021/05/21 02:56:43;;;;;;;1.87;0.80;;;18.30;93.10;;;18.41;46.23;100306.28;4927419;28;99471;-51
2021/05/21 02:59:09;;;;;;;1.30;1.00;;;18.30;91.90;;;18.50;47.64;100305.59;4925838;28;99212;-46
2021/05/21 03:01:35;;;;;;;1.90;1.03;;;18.40;93.10;;;18.41;47.60;100296.44;4927729;28;98374;-49
2021/05/21 03:04:01;;;;;;;1.17;0.87;;;18.20;92.80;;;18.46;47.77;100304.09;4924232;28;97646;-50
2021/05/21 03:06:27;;;;;;;3.27;1.30;;;18.30;93.20;;;18.47;45.55;100295.13;4927414;28;99651;-48
2021/05/21 03:08:53;;;;;;;1.87;1.07;;;18.40;91.80;;;18.51;47.15;100296.59;4956958;28;99978;-57
2021/05/21 03:11:19;;;;;;;1.33;1.00;;;18.40;92.10;;;18.55;47.63;100297.25;4924646;28;98512;-47
2021/05/21 03:13:45;;;;;;;1.90;0.83;;;18.50;93.50;;;18.62;47.30;100288.66;4926147;28;97441;-50
2021/05/21 03:16:11;;;;;;;1.20;0.80;;;18.60;92.90;;;18.60;47.25;100293.25;4922527;28;99752;-47
2021/05/21 03:18:37;;;;;;;3.63;1.53;;;18.50;92.80;;;18.66;47.38;100289.28;4926656;28;97342;-50
2021/05/21 03:21:04;;;;;;;3.20;1.40;;;18.60;92.70;;;18.61;45.04;100283.44;4921052;28;98260;-49
2021/05/21 03:23:30;;;;;;;0.73;0.60;;;18.50;91.30;;;18.63;47.36;100278.81;4925438;28;98030;-47
2021/05/21 03:25:56;;;;;;;1.13;0.77;;;18.50;92.80;;;18.59;47.41;100272.00;4954287;28;99656;-49
2021/05/21 03:28:22;;;;;;;1.33;0.80;;;18.50;93.20;;;18.60;47.49;100279.91;4923643;28;99581;-48
2021/05/21 03:30:49;;;;;;;1.87;0.90;;;18.50;92.90;;;18.62;47.12;100272.63;4961138;28;103283;-49
2021/05/21 03:33:15;;;;;;;3.07;1.03;;;18.50;92.70;;;18.60;46.76;100276.38;4922484;28;98930;-51
2021/05/21 03:35:41;;;;;;;1.10;0.70;;;18.50;92.60;;;18.54;46.91;100269.69;4925416;28;99497;-47
2021/05/21 03:38:08;;;;;;;5.57;1.30;;;18.40;92.90;;;18.52;46.85;100274.28;4922896;28;99280;-51
2021/05/21 03:40:37;;;;;;;1.17;0.70;;;18.40;92.30;;;18.54;46.24;100277.69;4940309;28;96979;-46
2021/05/21 03:43:03;;;;;;;2.67;1.20;;;18.50;92.60;;;18.48;45.22;100278.13;4954779;28;97366;-50
2021/05/21 03:45:31;;;;;;;4.23;1.80;;;18.40;92.00;;;18.48;47.45;100274.63;4959966;28;100251;-45
2021/05/21 03:47:57;;;;;;;1.77;1.23;;;18.30;92.70;;;18.47;47.52;100263.09;4948312;28;98099;-52
2021/05/21 03:50:23;;;;;;;6.17;1.60;;;18.30;92.50;;;18.43;44.55;100266.97;4947731;28;101807;-51
2021/05/21 03:52:49;;;;;;;2.63;1.60;;;18.30;91.40;;;18.36;47.39;100260.34;4964648;28;97563;-47
2021/05/21 03:55:16;;;;;;;3.03;1.67;;;18.20;93.10;;;18.38;47.08;100263.78;4958754;28;98663;-46
2021/05/21 03:57:42;;;;;;;4.20;1.17;;;18.30;92.20;;;18.38;47.51;100255.78;4950646;28;97305;-51
2021/05/21 04:00:18;;;;;;;1.00;0.70;;;18.20;92.70;;;18.40;47.98;100246.69;4942309;28;97377;-49
2021/05/21 04:02:45;;;;;;;0.70;0.70;;;18.30;93.60;;;18.43;48.01;100245.59;4950628;28;97017;-48
2021/05/21 04:05:12;;;;;;;1.00;0.90;;;18.30;93.40;;;18.41;47.36;100244.88;4958741;28;99039;-48
2021/05/21 04:07:37;;;;;;;2.63;1.20;;;18.30;93.00;;;18.40;46.13;100240.50;4943942;28;98183;-46
2021/05/21 04:10:05;;;;;;;0.90;0.70;;;18.30;92.40;;;18.48;47.60;100232.75;4940469;28;101864;-52
2021/05/21 04:12:31;;;;;;;0.77;0.70;;;18.40;93.50;;;18.49;47.59;100229.09;4979518;28;97173;-49
2021/05/21 04:14:57;;;;;;;2.13;1.10;;;18.40;93.20;;;18.48;46.42;100226.56;4942707;28;97646;-50
2021/05/21 04:17:23;;;;;;;2.53;1.10;;;18.40;92.70;;;18.48;47.50;100226.56;4965330;28;97691;-48
2021/05/21 04:19:49;;;;;;;2.57;1.10;;;18.40;93.10;;;18.47;46.24;100228.38;4944152;28;100617;-52
2021/05/21 04:22:15;;;;;;;1.80;1.20;;;18.40;92.50;;;18.49;47.75;100223.75;4980291;28;97439;-49
2021/05/21 04:24:42;;;;;;;3.13;1.40;;;18.40;93.20;;;18.48;46.82;100222.06;4949604;28;97665;-49
2021/05/21 04:27:08;;;;;;;2.87;1.00;;;18.40;92.40;;;18.47;45.97;100220.34;4942261;28;102539;-50
2021/05/21 04:29:34;;;;;;;1.10;0.63;;;18.40;92.30;;;18.47;47.70;100215.03;4962936;28;97336;-47
2021/05/21 04:32:01;;;;;;;1.63;0.80;;;18.30;93.40;;;18.48;47.36;100219.38;4943562;28;97212;-51
2021/05/21 04:34:27;;;;;;;2.47;1.00;;;18.40;92.50;;;18.45;45.34;100224.97;4948934;28;96828;-46
2021/05/21 04:36:53;;;;;;;4.03;1.80;;;18.40;92.00;;;18.49;47.16;100217.56;4984036;28;99490;-55
2021/05/21 04:39:19;;;;;;;2.90;1.67;;;18.40;92.50;;;18.38;46.58;100216.59;4949368;28;96770;-51
2021/05/21 04:41:45;;;;;;;2.33;1.20;;;18.30;92.10;;;18.45;47.82;100206.28;4949481;28;106164;-46
2021/05/21 04:44:12;;;;;;;1.33;0.80;;;18.30;92.60;;;18.49;47.84;100199.72;4933892;28;101114;-50
2021/05/21 04:46:38;;;;;;;1.27;0.90;;;18.40;93.50;;;18.49;47.94;100207.75;4950156;28;98953;-49
2021/05/21 04:49:04;;;;;;;2.27;1.30;;;18.40;93.30;;;18.40;47.20;100211.13;4933169;28;99474;-47
2021/05/21 04:51:30;;;;;;;1.63;0.80;;;18.30;92.70;;;18.45;47.90;100208.94;4947487;28;97492;-50
2021/05/21 04:53:59;;;;;;;2.70;1.03;;;18.30;93.70;;;18.49;47.51;100212.22;4945906;28;97137;-50
2021/05/21 04:56:25;;;;;;;0.90;0.87;;;18.30;92.60;;;18.48;47.72;100208.72;4959657;28;98074;-49
2021/05/21 04:58:51;;;;;;;3.50;1.13;;;18.40;93.40;;;18.53;47.80;100197.69;4952544;28;97360;-48
2021/05/21 05:01:18;;;;;;;2.83;0.83;;;18.40;92.60;;;18.52;46.48;100199.53;4961037;28;97406;-52
2021/05/21 05:03:44;;;;;;;3.10;1.50;;;18.40;92.20;;;18.55;46.29;100196.63;4985708;28;100987;-47
2021/05/21 05:06:11;;;;;;;1.33;0.90;;;18.50;92.40;;;18.45;47.53;100200.94;4949420;28;97384;-50
2021/05/21 05:08:37;;;;;;;2.60;1.40;;;18.30;92.90;;;18.44;47.26;100193.91;4944519;28;97443;-48
2021/05/21 05:11:03;;;;;;;1.17;0.73;;;18.20;92.40;;;18.40;46.58;100192.44;4962955;28;97318;-49
2021/05/21 05:13:29;;;;;;;3.43;1.70;;;18.20;93.00;;;18.34;45.32;100185.72;4947087;28;100205;-48
2021/05/21 05:15:55;;;;;;;2.97;1.37;;;18.20;92.20;;;18.33;45.25;100185.84;4963678;28;97823;-48
2021/05/21 05:18:21;;;;;;;1.50;1.20;;;18.20;91.90;;;18.28;45.22;100188.00;4946877;28;98401;-47
2021/05/21 05:20:47;;;;;;;5.80;1.80;;;18.10;92.20;;;18.21;45.86;100192.94;4965316;28;97026;-50
2021/05/21 05:23:14;;;;;;;6.07;1.83;;;18.00;92.00;;;18.17;45.37;100190.63;4921285;28;97239;-48
2021/05/21 05:25:44;;;;;;;2.83;1.47;;;17.90;92.00;;;18.21;45.96;100192.09;4963727;28;97283;-47
2021/05/21 05:28:15;;;;;;;2.50;1.47;;;18.00;92.20;;;18.04;45.69;100186.19;4946204;28;96993;-47
2021/05/21 05:30:41;;;;;;;2.00;0.80;;;17.80;92.40;;;18.01;45.98;100183.75;4951429;28;97165;-51
2021/05/21 05:33:07;;;;;;;3.47;1.30;;;17.80;93.20;;;17.90;46.24;100177.50;4970170;28;97604;-50
2021/05/21 05:35:33;;;;;;;3.43;1.27;;;17.70;93.20;;;17.96;47.79;100177.91;4950665;28;97325;-52
2021/05/21 05:37:59;;;;;;;2.03;0.90;;;17.70;92.90;;;17.84;46.05;100173.47;4933962;28;96835;-49
2021/05/21 05:40:25;;;;;;;3.47;1.17;;;17.70;91.90;;;17.76;45.21;100167.84;4952244;28;97295;-49
2021/05/21 05:42:51;;;;;;;2.33;1.07;;;17.60;91.90;;;17.79;47.74;100164.94;4949351;28;97339;-49
2021/05/21 05:45:17;;;;;;;3.50;1.10;;;17.50;93.10;;;17.77;46.34;100166.88;4940200;28;98145;-48
2021/05/21 05:47:43;;;;;;;2.73;1.00;;;17.60;92.80;;;17.74;46.51;100156.44;4972447;28;97563;-50
2021/05/21 05:50:10;;;;;;;2.63;1.30;;;17.50;92.30;;;17.80;48.82;100161.34;4943785;28;97834;-53
2021/05/21 05:52:36;;;;;;;3.83;1.27;;;17.60;93.80;;;17.80;48.09;100156.00;4947195;28;98071;-47
2021/05/21 05:55:03;;;;;;;3.63;1.00;;;17.60;93.20;;;17.78;48.41;100152.56;4939930;28;97940;-47
2021/05/21 05:57:29;;;;;;;1.23;0.73;;;17.60;93.30;;;17.80;48.97;100150.66;4960943;28;97274;-50
2021/05/21 05:59:55;;;;;;;2.03;0.90;;;17.60;94.40;;;17.82;46.42;100149.59;4946678;28;97087;-58
2021/05/21 06:02:21;;;;;;;1.13;0.80;;;17.70;92.80;;;17.80;46.34;100145.34;4965824;28;97249;-49
2021/05/21 06:04:46;;;;;;;2.07;1.30;;;17.70;93.00;;;17.83;46.19;100153.09;4962023;28;97676;-49
2021/05/21 06:07:12;;;;;;;4.80;1.33;;;17.70;92.60;;;17.71;46.04;100146.00;4945446;28;98523;-51
2021/05/21 06:09:38;;;;;;;4.10;1.13;;;17.50;92.40;;;17.66;47.09;100140.97;4947854;28;97201;-52
2021/05/21 06:12:05;;;;;;;2.43;0.90;;;17.40;92.80;;;17.69;47.88;100142.59;4961249;28;97493;-48
2021/05/21 06:14:30;;;;;;;3.73;1.30;;;17.40;93.50;;;17.68;46.35;100154.19;4947098;28;97355;-51
2021/05/21 06:16:56;;;;;;;3.47;1.10;;;17.50;92.90;;;17.70;48.46;100154.97;4948361;28;103634;-50
2021/05/21 06:19:22;;;;;;;3.23;1.53;;;17.40;93.20;;;17.72;48.39;100163.69;4948021;28;97484;-47
2021/05/21 06:21:48;;;;;;;3.43;1.40;;;17.50;93.90;;;17.78;47.10;100149.91;4983730;28;96863;-49
2021/05/21 06:24:16;;;;;;;2.13;1.07;;;17.60;93.00;;;17.81;48.66;100147.03;4945023;28;97339;-50
2021/05/21 06:26:44;;;;;;;1.67;0.90;;;17.60;93.60;;;17.87;47.59;100138.56;4947661;28;96803;-50
2021/05/21 06:29:12;;;;;;;6.03;1.63;;;17.70;93.90;;;17.81;45.71;100141.69;4940825;28;97154;-48
2021/05/21 06:31:38;;;;;;;6.23;1.30;;;17.70;92.50;;;17.86;46.37;100139.53;4948239;28;98151;-46
2021/05/21 06:34:04;;;;;;;2.80;1.13;;;17.70;93.20;;;17.87;46.66;100135.91;4935358;28;114325;-49
2021/05/21 06:36:30;;;;;;;1.17;0.80;;;17.70;93.30;;;17.82;46.28;100138.06;4920264;28;97375;-50
2021/05/21 06:38:55;;;;;;;3.17;1.70;;;17.60;93.10;;;17.78;47.53;100134.75;4927810;28;98449;-47
2021/05/21 06:41:21;;;;;;;3.40;1.17;;;17.60;92.50;;;17.73;45.75;100141.41;4951105;28;102300;-51
2021/05/21 06:43:47;;;;;;;4.00;1.30;;;17.50;92.60;;;17.68;45.81;100140.84;4947176;28;100017;-54
2021/05/21 06:46:14;;;;;;;2.73;1.20;;;17.50;92.40;;;17.67;48.71;100133.81;4927605;28;97218;-48
2021/05/21 06:48:40;;;;;;;4.77;1.40;;;17.40;93.80;;;17.60;45.77;100133.41;4934528;28;97116;-47
2021/05/21 06:51:07;;;;;;;6.40;1.50;;;17.40;92.50;;;17.74;45.74;100132.44;4960985;28;97416;-47
2021/05/21 06:53:34;;;;;;;3.33;1.33;;;17.60;92.20;;;17.86;48.35;100133.34;4950310;28;97578;-48
2021/05/21 06:56:00;;;;;;;2.60;1.23;;;17.70;94.10;;;17.89;46.62;100146.44;4939114;28;97333;-48
2021/05/21 06:58:27;;;;;;;4.93;1.53;;;17.80;92.60;;;17.81;44.85;100137.22;4944574;28;97348;-47
2021/05/21 07:00:59;;;;;;;5.03;1.63;;;17.70;91.70;;;17.79;45.40;100138.25;4944153;28;96802;-50
2021/05/21 07:03:28;;;;;;;7.57;1.83;;;17.70;91.80;;;17.82;46.94;100143.41;4942090;28;103781;-47
2021/05/21 07:05:56;;;;;;;5.77;1.70;;;17.70;92.20;;;17.83;47.30;100143.28;4965769;28;97019;-56
2021/05/21 07:08:22;;;;;;;4.57;1.60;;;17.70;93.00;;;17.87;46.22;100146.56;4942719;28;97471;-47
2021/05/21 07:10:48;;;;;;;6.30;1.93;;;17.80;91.20;;;17.85;45.73;100143.16;4950590;28;97307;-52
2021/05/21 07:13:17;;;;;;;4.43;0.93;;;17.80;91.50;;;17.80;45.68;100140.00;4938993;28;97674;-49
2021/05/21 07:15:43;;;;;;;5.33;1.23;;;17.70;92.50;;;17.82;47.73;100143.41;4981681;28;96987;-49
2021/05/21 07:18:09;;;;;;;6.73;1.90;;;17.70;92.70;;;17.82;44.13;100143.41;4950990;28;98197;-48
2021/05/21 07:20:35;;;;;;;6.83;1.90;;;17.70;91.00;;;17.69;44.19;100147.94;4946391;28;98528;-47
2021/05/21 07:23:01;;;;;;;11.50;2.07;;;17.60;91.00;;;17.69;44.27;100142.59;4940293;28;100468;-50
2021/05/21 07:25:28;;;;;;;7.70;1.57;;;17.50;91.20;;;17.73;46.79;100133.41;4968842;28;97563;-50
2021/05/21 07:27:55;;;;;;;4.83;1.90;;;17.60;91.70;;;17.83;45.38;100137.94;4947280;28;97533;-57
2021/05/21 07:30:22;;;;;;;7.17;1.80;;;17.80;91.00;;;17.88;44.11;100134.94;4951662;28;98027;-47
2021/05/21 07:32:47;;;;;;;5.90;1.50;;;17.90;91.30;;;17.83;43.34;100145.09;4945236;28;97973;-47
2021/05/21 07:35:14;;;;;;;3.90;1.27;;;17.80;90.20;;;17.84;45.12;100126.31;4948910;28;96975;-50
2021/05/21 07:37:42;;;;;;;5.87;1.57;;;17.70;92.10;;;17.87;43.95;100141.22;4942668;28;97069;-50
2021/05/21 07:40:08;;;;;;;9.67;1.87;;;17.80;91.10;;;17.71;41.86;100140.66;4907080;28;97799;-47
2021/05/21 07:42:36;;;;;;;3.33;1.30;;;17.60;87.80;;;17.70;42.41;100133.63;4943033;28;96816;-47
2021/05/21 07:45:06;;;;;;;10.27;2.10;;;17.60;88.50;;;17.79;42.74;100132.94;4958609;28;97019;-47
2021/05/21 07:47:32;;;;;;;10.80;1.60;;;17.70;90.70;;;17.76;41.54;100143.84;4947708;28;98189;-46
2021/05/21 07:49:58;;;;;;;5.67;1.50;;;17.80;86.90;;;17.79;40.92;100127.59;4972016;28;97639;-45
2021/05/21 07:52:24;;;;;;;10.10;1.40;;;17.80;86.00;;;17.85;43.07;100127.16;4952498;28;100423;-50
2021/05/21 07:54:50;;;;;;;6.97;2.03;;;17.80;90.10;;;17.87;43.10;100125.22;4975628;28;99785;-46
2021/05/21 07:57:15;;;;;;;7.33;1.60;;;17.80;88.50;;;17.91;42.96;100126.69;4949370;28;97036;-46
2021/05/21 07:59:41;;;;;;;4.57;1.43;;;17.90;90.30;;;17.92;44.79;100123.06;4946150;28;98998;-49
2021/05/21 08:02:08;;;;;;;4.87;1.40;;;17.90;90.30;;;17.94;45.61;100115.81;4932947;28;97953;-46
2021/05/21 08:04:34;;;;;;;5.73;1.50;;;17.90;91.00;;;18.00;45.67;100136.69;4945827;28;97202;-47
2021/05/21 08:06:59;;;;;;;7.43;1.50;;;18.00;91.20;;;17.99;43.71;100135.00;4942004;28;96812;-49
2021/05/21 08:09:26;;;;;;;2.90;1.23;;;18.00;89.80;;;18.02;46.01;100137.41;4950900;28;98446;-49
2021/05/21 08:11:52;;;;;;;5.63;1.60;;;18.00;91.90;;;18.09;44.52;100136.00;4964703;28;97272;-47
2021/05/21 08:14:17;;;;;;;7.57;1.63;;;18.20;90.70;;;18.04;44.72;100138.16;4942346;28;96872;-47
2021/05/21 08:16:43;;;;;;;7.77;2.13;;;18.10;90.50;;;18.04;45.54;100135.50;4967487;28;96903;-48
2021/05/21 08:19:09;;;;;;;6.30;1.70;;;18.10;90.90;;;17.89;41.79;100133.97;4945468;28;97886;-46
2021/05/21 08:21:36;;;;;;;7.90;2.03;;;17.90;87.20;;;17.97;44.86;100150.25;4968996;28;110281;-48
2021/05/21 08:24:03;;;;;;;6.87;2.33;;;18.00;91.00;;;17.95;42.61;100138.84;4949050;28;97069;-48
2021/05/21 08:26:29;;;;;;;11.07;2.20;;;18.00;90.00;;;17.88;42.52;100145.59;4949190;28;97828;-50
2021/05/21 08:28:57;;;;;;;10.77;2.27;;;17.90;87.60;;;17.79;40.56;100141.81;4948570;28;97254;-50
2021/05/21 08:31:24;;;;;;;10.40;2.33;;;17.70;84.50;;;17.79;46.32;100138.25;4954199;28;97310;-47
2021/05/21 08:33:50;;;;;;;8.43;2.40;;;17.70;91.10;;;17.72;45.37;100137.03;4964644;28;97642;-48
2021/05/21 08:36:17;;;;;;;9.27;2.20;;;17.60;90.00;;;17.71;44.17;100138.84;4945044;28;98330;-48
2021/05/21 08:38:45;;;;;;;5.53;1.90;;;17.60;86.80;;;17.75;44.60;100126.13;4944412;28;97596;-52
2021/05/21 08:41:23;;;;;;;9.83;2.63;;;17.70;90.10;;;17.78;45.49;100141.91;4945741;28;97271;-49
2021/05/21 08:43:51;;;;;;;9.50;2.00;;;17.80;89.50;;;17.88;40.36;100142.94;4948257;28;99341;-50
2021/05/21 08:46:19;;;;;;;8.60;1.97;;;17.90;84.30;;;17.92;38.46;100135.53;4974765;28;97463;-48
2021/05/21 08:48:46;;;;;;;14.03;2.97;;;17.90;81.20;;;17.90;39.19;100130.31;4948035;28;99277;-50
2021/05/21 08:51:14;;;;;;;9.03;2.00;;;17.90;81.40;;;17.87;39.79;100145.72;4948650;28;98154;-48
2021/05/21 08:53:42;;;;;;;11.93;2.43;;;17.80;83.60;;;17.89;40.97;100139.28;4938179;28;98254;-48
2021/05/21 08:56:09;;;;;;;10.00;2.00;;;17.80;85.80;;;17.91;40.66;100153.38;4944009;28;97098;-48
2021/05/21 08:58:36;;;;;;;9.23;2.17;;;17.80;80.70;;;17.89;40.41;100144.63;4949185;28;97185;-46
2021/05/21 09:01:05;;;;;;;7.00;1.60;;;17.80;84.90;;;17.92;41.69;100149.72;4976992;28;99030;-52
2021/05/21 09:03:33;;;;;;;7.87;2.00;;;17.90;86.20;;;17.92;37.85;100155.06;4952129;28;97281;-46
2021/05/21 09:06:20;;;;;;;11.27;2.20;;;18.00;79.90;;;17.93;41.44;100162.09;4951572;28;97530;-48
2021/05/21 09:08:51;;;;;;;11.10;2.17;;;18.00;82.50;;;18.02;41.30;100158.78;4967971;28;99472;-48
2021/05/21 09:11:37;;;;;;;7.23;2.10;;;18.00;86.80;;;18.02;38.82;100158.78;4925850;28;97380;-48
2021/05/21 09:14:23;;;;;;;9.13;2.23;;;18.10;85.20;;;17.92;36.86;100165.75;4947853;28;97270;-48
2021/05/21 09:16:49;;;;;;;7.37;2.30;;;18.00;78.70;;;17.98;41.38;100154.63;4952292;28;97581;-52
2021/05/21 09:19:23;;;;;;;9.27;2.33;;;18.00;83.50;;;18.03;42.96;100152.47;4944691;28;99358;-47
2021/05/21 09:22:02;;;;;;;12.97;2.10;;;18.00;82.30;;;18.02;39.18;100155.25;4946178;28;97325;-45
2021/05/21 09:24:43;;;;;;;3.90;1.40;;;18.00;80.40;;;18.03;37.16;100152.47;4947826;28;97317;-46
2021/05/21 09:27:11;;;;;;;6.40;1.80;;;18.00;78.60;;;18.01;40.42;100162.41;4980423;28;99326;-50
2021/05/21 09:29:53;;;;;;;9.77;1.90;;;18.00;83.50;;;18.06;39.66;100162.91;4949290;28;97753;-50
2021/05/21 09:32:34;;;;;;;7.90;2.00;;;18.10;80.90;;;18.16;41.41;100156.88;4941066;28;102779;-52
2021/05/21 09:35:12;;;;;;;6.37;1.60;;;18.20;82.70;;;18.06;37.30;100160.22;4945256;28;97275;-47
2021/05/21 09:37:52;;;;;;;8.67;2.17;;;18.20;76.20;;;18.19;40.29;100157.50;4964706;28;97330;-52
2021/05/21 09:40:24;;;;;;;7.87;2.10;;;18.20;81.80;;;18.25;38.44;100150.88;4964939;28;98709;-54
2021/05/21 09:43:02;;;;;;;6.57;2.00;;;18.30;79.70;;;18.25;36.98;100158.88;4946372;28;97468;-48
2021/05/21 09:45:39;;;;;;;8.80;1.90;;;18.30;79.20;;;18.18;35.81;100150.47;4948956;28;97226;-52
2021/05/21 09:48:09;;;;;;;6.77;2.00;;;18.20;76.20;;;18.18;40.74;100145.13;4925979;28;97627;-50
2021/05/21 09:50:46;;;;;;;8.43;1.83;;;18.20;79.50;;;18.18;41.22;100150.47;4950238;28;97290;-52
2021/05/21 09:53:24;;;;;;;8.80;2.23;;;18.10;78.20;;;18.11;38.53;100146.56;4973915;28;99085;-48
2021/05/21 09:55:57;;;;;;;7.37;1.80;;;18.20;77.60;;;18.21;36.29;100149.38;4983038;28;97196;-47
2021/05/21 09:58:47;;;;;;;6.67;2.03;;;18.30;77.70;;;18.31;41.72;100134.38;4943005;28;97156;-50
2021/05/21 10:01:15;;;;;;;5.03;1.40;;;18.40;82.70;;;18.28;36.23;100126.59;4933570;28;99070;-50
2021/05/21 10:03:42;;;;;;;7.60;2.13;;;18.30;76.80;;;18.13;35.22;100137.47;4940053;28;97790;-47
2021/05/21 10:06:09;;;;;;;8.07;1.90;;;18.30;74.50;;;18.28;36.70;100145.28;4948589;28;96986;-48
2021/05/21 10:08:38;;;;;;;10.93;1.93;;;18.40;75.60;;;18.35;33.74;100151.84;4919663;28;98497;-51
2021/05/21 10:11:08;;;;;;;11.73;2.30;;;18.40;71.00;;;18.42;36.59;100169.13;4920333;28;97863;-50